createdAt,value
2022-12-31T00:01:28.160Z,4.18
2022-12-31T00:03:55.587Z,4.14
2022-12-31T00:06:26.432Z,4.07
2022-12-31T00:08:55.519Z,4.02
2022-12-31T00:11:24.109Z,4.03
2022-12-31T00:13:53.196Z,4.04
2022-12-31T00:16:23.279Z,4.05
2022-12-31T00:18:52.419Z,4.06
2022-12-31T00:21:20.506Z,4.09
2022-12-31T00:23:48.577Z,4.15
2022-12-31T00:26:17.723Z,4.16
2022-12-31T00:28:45.446Z,4.17
2022-12-31T00:31:16.825Z,4.18
2022-12-31T00:33:44.889Z,4.16
2022-12-31T00:36:14.359Z,4.13
2022-12-31T00:38:43.159Z,4.14
2022-12-31T00:41:10.653Z,4.13
2022-12-31T00:43:37.793Z,4.14
2022-12-31T00:46:06.184Z,4.12
2022-12-31T00:48:35.397Z,4.09
2022-12-31T00:51:04.175Z,4.08
2022-12-31T00:53:31.493Z,4.09
2022-12-31T00:56:02.193Z,4.09
2022-12-31T00:58:29.380Z,4.05
2022-12-31T01:00:56.412Z,4.04
2022-12-31T01:03:23.624Z,4.05
2022-12-31T01:05:52.291Z,4.05
2022-12-31T01:08:19.240Z,4.05
2022-12-31T01:11:07.854Z,4.04
2022-12-31T01:13:35.031Z,3.94
2022-12-31T01:16:07.743Z,3.91
2022-12-31T01:18:34.845Z,3.91
2022-12-31T01:21:04.789Z,3.89
2022-12-31T01:23:32.007Z,3.87
2022-12-31T01:26:00.399Z,3.83
2022-12-31T01:28:27.892Z,3.80
2022-12-31T01:30:55.391Z,3.78
2022-12-31T01:33:22.387Z,3.77
2022-12-31T01:35:52.153Z,3.80
2022-12-31T01:38:20.510Z,3.82
2022-12-31T01:40:47.448Z,3.81
2022-12-31T01:43:16.871Z,3.79
2022-12-31T01:45:45.820Z,3.70
2022-12-31T01:48:15.611Z,3.40
2022-12-31T01:50:43.221Z,3.35
2022-12-31T01:53:11.848Z,3.37
2022-12-31T01:55:46.443Z,3.39
2022-12-31T01:58:17.429Z,3.41
2022-12-31T02:00:45.342Z,3.37
2022-12-31T02:03:13.413Z,3.33
2022-12-31T02:05:46.441Z,3.32
2022-12-31T02:08:14.033Z,3.33
2022-12-31T02:10:42.455Z,3.38
2022-12-31T02:13:09.746Z,3.38
2022-12-31T02:15:44.209Z,3.34
2022-12-31T02:18:16.925Z,3.30
2022-12-31T02:21:28.229Z,3.28
2022-12-31T02:24:30.632Z,3.28
2022-12-31T02:27:07.122Z,3.29
2022-12-31T02:30:10.623Z,3.28
2022-12-31T02:33:03.536Z,3.32
2022-12-31T02:35:41.724Z,3.33
2022-12-31T02:38:12.923Z,3.36
2022-12-31T02:40:40.415Z,3.37
2022-12-31T02:43:07.405Z,3.32
2022-12-31T02:45:40.210Z,3.27
2022-12-31T02:48:28.752Z,3.23
2022-12-31T02:51:05.745Z,3.24
2022-12-31T02:53:50.190Z,3.22
2022-12-31T02:56:22.627Z,3.22
2022-12-31T02:59:17.999Z,3.21
2022-12-31T03:02:09.326Z,3.23
2022-12-31T03:04:37.361Z,3.22
2022-12-31T03:07:06.493Z,3.20
2022-12-31T03:09:34.504Z,3.19
2022-12-31T03:12:21.379Z,3.18
2022-12-31T03:14:48.811Z,3.20
2022-12-31T03:17:17.261Z,3.22
2022-12-31T03:20:03.485Z,3.22
2022-12-31T03:22:30.917Z,3.14
2022-12-31T03:25:18.961Z,3.13
2022-12-31T03:27:47.063Z,3.07
2022-12-31T03:30:15.553Z,3.06
2022-12-31T03:32:45.615Z,3.06
2022-12-31T03:35:14.338Z,3.08
2022-12-31T03:37:41.864Z,3.11
2022-12-31T03:40:11.973Z,3.13
2022-12-31T03:42:39.104Z,3.16
2022-12-31T03:45:07.370Z,3.17
2022-12-31T03:47:34.551Z,3.18
2022-12-31T03:50:03.240Z,3.16
2022-12-31T03:52:30.261Z,3.18
2022-12-31T03:54:57.214Z,3.17
2022-12-31T03:57:24.329Z,3.15
2022-12-31T03:59:51.370Z,3.16
2022-12-31T04:02:20.923Z,3.18
2022-12-31T04:04:51.742Z,3.22
2022-12-31T04:07:20.118Z,3.24
2022-12-31T04:09:47.074Z,3.22
2022-12-31T04:12:14.055Z,3.27
2022-12-31T04:14:41.298Z,3.23
2022-12-31T04:17:08.286Z,3.23
2022-12-31T04:19:35.292Z,3.22
2022-12-31T04:22:02.350Z,3.22
2022-12-31T04:24:30.861Z,3.20
2022-12-31T04:27:02.109Z,3.12
2022-12-31T04:29:32.519Z,3.09
2022-12-31T04:31:59.543Z,3.08
2022-12-31T04:34:26.578Z,3.05
2022-12-31T04:36:53.808Z,3.04
2022-12-31T04:39:20.769Z,3.02
2022-12-31T04:41:49.151Z,3.01
2022-12-31T04:44:16.260Z,3.01
2022-12-31T04:46:43.318Z,2.96
2022-12-31T04:49:10.600Z,2.87
2022-12-31T04:51:38.201Z,2.84
2022-12-31T04:54:05.607Z,2.85
2022-12-31T04:56:33.007Z,2.83
2022-12-31T04:59:01.340Z,2.84
2022-12-31T05:01:28.328Z,2.84
2022-12-31T05:03:55.312Z,2.83
2022-12-31T05:06:23.593Z,2.77
2022-12-31T05:08:50.921Z,2.74
2022-12-31T05:11:17.903Z,2.72
2022-12-31T05:13:44.943Z,2.69
2022-12-31T05:16:13.340Z,2.66
2022-12-31T05:18:40.324Z,2.62
2022-12-31T05:21:07.491Z,2.61
2022-12-31T05:23:34.717Z,2.65
2022-12-31T05:26:02.054Z,2.69
2022-12-31T05:28:29.070Z,2.67
2022-12-31T05:30:56.255Z,2.66
2022-12-31T05:33:25.001Z,2.68
2022-12-31T05:35:51.991Z,2.69
2022-12-31T05:38:18.919Z,2.73
2022-12-31T05:40:45.931Z,2.75
2022-12-31T05:43:14.162Z,2.74
2022-12-31T05:45:41.156Z,2.75
2022-12-31T05:48:08.200Z,2.73
2022-12-31T05:50:36.901Z,2.72
2022-12-31T05:53:04.305Z,2.75
2022-12-31T05:55:31.263Z,2.77
2022-12-31T05:57:58.311Z,2.80
2022-12-31T06:00:25.233Z,2.82
2022-12-31T06:02:52.187Z,2.80
2022-12-31T06:05:25.757Z,2.67
2022-12-31T06:07:54.559Z,2.58
2022-12-31T06:10:21.504Z,2.56
2022-12-31T06:12:48.446Z,2.59
2022-12-31T06:15:15.610Z,2.61
2022-12-31T06:17:42.552Z,2.68
2022-12-31T06:20:13.134Z,3.06
2022-12-31T06:22:40.417Z,3.71
2022-12-31T06:25:09.788Z,4.26
2022-12-31T06:27:36.723Z,4.82
2022-12-31T06:30:04.302Z,5.40
2022-12-31T06:32:31.354Z,5.90
2022-12-31T06:34:58.296Z,6.39
2022-12-31T06:37:25.244Z,6.79
2022-12-31T06:39:52.163Z,7.19
2022-12-31T06:42:20.481Z,7.43
2022-12-31T06:44:47.461Z,7.68
2022-12-31T06:47:14.400Z,7.86
2022-12-31T06:49:41.365Z,8.03
2022-12-31T06:52:08.505Z,8.13
2022-12-31T06:54:36.013Z,8.25
2022-12-31T06:57:05.541Z,8.42
2022-12-31T06:59:37.692Z,8.62
2022-12-31T07:02:34.821Z,8.85
2022-12-31T07:05:27.907Z,9.06
2022-12-31T07:08:02.011Z,9.23
2022-12-31T07:10:39.599Z,9.32
2022-12-31T07:13:39.056Z,9.43
2022-12-31T07:16:28.503Z,9.48
2022-12-31T07:19:02.618Z,9.34
2022-12-31T07:21:34.978Z,9.39
2022-12-31T07:24:03.002Z,9.48
2022-12-31T07:26:42.784Z,9.64
2022-12-31T07:29:19.704Z,9.74
2022-12-31T07:31:59.535Z,9.70
2022-12-31T07:34:35.209Z,9.89
2022-12-31T07:37:08.175Z,10.10
2022-12-31T07:39:41.760Z,10.29
2022-12-31T07:42:15.573Z,10.51
2022-12-31T07:44:52.811Z,10.75
2022-12-31T07:47:24.388Z,10.95
2022-12-31T07:49:52.356Z,11.17
2022-12-31T07:52:20.855Z,11.43
2022-12-31T07:54:47.892Z,11.66
2022-12-31T07:57:16.981Z,11.87
2022-12-31T08:00:03.387Z,12.06
2022-12-31T08:03:04.170Z,12.13
2022-12-31T08:05:36.588Z,12.26
2022-12-31T08:08:15.139Z,12.39
2022-12-31T08:10:59.951Z,12.44
2022-12-31T08:13:27.597Z,12.49
2022-12-31T08:15:55.163Z,12.66
2022-12-31T08:18:24.235Z,12.80
2022-12-31T08:21:00.720Z,12.95
2022-12-31T08:23:33.894Z,12.97
2022-12-31T08:26:13.954Z,12.98
2022-12-31T08:28:57.892Z,13.13
2022-12-31T08:31:33.868Z,13.48
2022-12-31T08:34:10.679Z,13.86
2022-12-31T08:36:48.572Z,14.07
2022-12-31T08:39:29.867Z,14.41
2022-12-31T08:41:59.003Z,14.75
2022-12-31T08:44:36.465Z,15.01
2022-12-31T08:47:16.750Z,15.23
2022-12-31T08:49:45.601Z,15.51
2022-12-31T08:52:16.166Z,15.76
2022-12-31T08:54:43.798Z,16.01
2022-12-31T08:57:17.952Z,16.15
2022-12-31T08:59:53.234Z,16.26
2022-12-31T09:02:32.365Z,16.42
2022-12-31T09:05:11.549Z,16.63
2022-12-31T09:07:42.634Z,16.78
2022-12-31T09:10:20.907Z,17.01
2022-12-31T09:12:53.917Z,17.18
2022-12-31T09:15:26.760Z,17.38
2022-12-31T09:17:54.531Z,17.54
2022-12-31T09:20:26.257Z,17.71
2022-12-31T09:22:56.224Z,17.83
2022-12-31T09:25:25.121Z,17.93
2022-12-31T09:28:03.500Z,17.92
2022-12-31T09:30:41.257Z,18.04
2022-12-31T09:33:12.753Z,18.14
2022-12-31T09:35:51.234Z,18.34
2022-12-31T09:38:22.934Z,18.53
2022-12-31T09:41:00.040Z,18.45
2022-12-31T09:44:03.388Z,18.27
2022-12-31T09:47:17.874Z,18.53
2022-12-31T09:50:16.247Z,18.91
2022-12-31T09:53:01.876Z,19.18
2022-12-31T09:55:33.371Z,19.45
2022-12-31T09:58:12.068Z,19.57
2022-12-31T10:00:46.888Z,19.39
2022-12-31T10:03:25.542Z,19.20
2022-12-31T10:06:24.550Z,19.06
2022-12-31T10:09:16.335Z,19.20
2022-12-31T10:12:03.532Z,19.32
2022-12-31T10:14:47.351Z,19.69
2022-12-31T10:17:39.828Z,20.03
2022-12-31T10:20:28.411Z,20.45
2022-12-31T10:23:08.365Z,20.40
2022-12-31T10:26:00.352Z,20.39
2022-12-31T10:28:37.935Z,20.65
2022-12-31T10:31:14.700Z,21.12
2022-12-31T10:33:52.281Z,21.40
2022-12-31T10:36:29.375Z,21.45
2022-12-31T10:39:14.373Z,21.29
2022-12-31T10:42:16.836Z,21.25
2022-12-31T10:45:22.371Z,21.49
2022-12-31T10:48:29.517Z,21.24
2022-12-31T10:51:29.606Z,21.09
2022-12-31T10:54:18.974Z,21.08
2022-12-31T10:57:16.512Z,21.01
2022-12-31T11:00:16.156Z,21.04
2022-12-31T11:03:13.444Z,21.03
2022-12-31T11:06:20.797Z,20.94
2022-12-31T11:09:20.106Z,20.82
2022-12-31T11:11:58.191Z,20.80
2022-12-31T11:14:53.106Z,20.94
2022-12-31T11:17:37.599Z,20.94
2022-12-31T11:20:23.681Z,20.65
2022-12-31T11:23:01.433Z,20.49
2022-12-31T11:25:43.768Z,20.52
2022-12-31T11:28:30.625Z,20.53
2022-12-31T11:31:13.669Z,20.52
2022-12-31T11:33:56.484Z,20.60
2022-12-31T11:36:35.105Z,20.71
2022-12-31T11:39:34.560Z,20.81
2022-12-31T11:42:12.103Z,20.88
2022-12-31T11:44:46.435Z,21.06
2022-12-31T11:47:32.336Z,21.17
2022-12-31T11:50:26.277Z,21.30
2022-12-31T11:53:02.088Z,21.17
2022-12-31T11:55:38.276Z,21.17
2022-12-31T11:58:13.095Z,21.25
2022-12-31T12:00:45.312Z,21.21
2022-12-31T12:03:13.013Z,21.04
2022-12-31T12:05:41.451Z,20.83
2022-12-31T12:08:08.444Z,20.82
2022-12-31T12:10:42.072Z,20.85
2022-12-31T12:13:21.996Z,20.75
2022-12-31T12:15:51.399Z,20.73
2022-12-31T12:18:29.064Z,20.83
2022-12-31T12:21:06.134Z,20.75
2022-12-31T12:23:33.182Z,20.69
2022-12-31T12:26:00.307Z,20.64
2022-12-31T12:28:29.576Z,20.56
2022-12-31T12:30:59.453Z,20.50
2022-12-31T12:33:29.753Z,20.50
2022-12-31T12:36:09.166Z,20.59
2022-12-31T12:38:37.359Z,20.55
2022-12-31T12:41:06.287Z,20.52
2022-12-31T12:43:35.327Z,20.39
2022-12-31T12:46:05.440Z,20.36
2022-12-31T12:48:41.266Z,20.35
2022-12-31T12:51:23.672Z,20.28
2022-12-31T12:54:01.689Z,20.26
2022-12-31T12:56:37.855Z,20.32
2022-12-31T12:59:28.155Z,20.30
2022-12-31T13:02:07.254Z,20.15
2022-12-31T13:04:59.108Z,20.00
2022-12-31T13:07:41.239Z,19.95
2022-12-31T13:10:23.659Z,19.94
2022-12-31T13:15:53.869Z,19.89
2022-12-31T13:18:33.266Z,19.76
2022-12-31T13:21:20.265Z,19.54
2022-12-31T13:23:54.438Z,19.45
2022-12-31T13:26:25.649Z,19.39
2022-12-31T13:28:53.394Z,19.31
2022-12-31T13:31:26.471Z,19.18
2022-12-31T13:33:58.552Z,19.15
2022-12-31T13:36:28.581Z,19.13
2022-12-31T13:39:02.933Z,19.05
2022-12-31T13:41:34.755Z,19.04
2022-12-31T13:44:08.906Z,19.02
2022-12-31T13:46:44.595Z,18.99
2022-12-31T13:49:18.850Z,19.04
2022-12-31T13:51:49.297Z,18.89
2022-12-31T13:54:30.159Z,18.84
2022-12-31T13:57:05.774Z,18.72
2022-12-31T13:59:36.965Z,18.62
2022-12-31T14:02:16.691Z,18.54
2022-12-31T14:04:49.840Z,18.50
2022-12-31T14:07:22.944Z,18.41
2022-12-31T14:09:51.640Z,18.42
2022-12-31T14:12:39.969Z,18.41
2022-12-31T14:15:17.232Z,18.30
2022-12-31T14:17:50.616Z,18.15
2022-12-31T14:20:26.163Z,17.94
2022-12-31T14:23:03.139Z,17.71
2022-12-31T14:25:37.342Z,17.48
2022-12-31T14:28:06.855Z,17.29
2022-12-31T14:30:39.557Z,17.13
2022-12-31T14:33:20.077Z,16.98
2022-12-31T14:36:06.773Z,16.81
2022-12-31T14:38:50.498Z,16.57
2022-12-31T14:41:34.498Z,16.34
2022-12-31T14:44:14.389Z,16.14
2022-12-31T14:46:56.549Z,15.94
2022-12-31T14:49:35.572Z,15.78
2022-12-31T14:52:19.576Z,15.63
2022-12-31T14:54:46.584Z,15.52
2022-12-31T14:57:24.558Z,15.40
2022-12-31T14:59:54.277Z,15.28
2022-12-31T15:02:27.258Z,15.14
2022-12-31T15:05:11.443Z,15.03
2022-12-31T15:07:50.694Z,14.91
2022-12-31T15:10:21.958Z,14.79
2022-12-31T15:13:01.814Z,14.66
2022-12-31T15:16:01.425Z,14.53
2022-12-31T15:18:54.850Z,14.37
2022-12-31T15:21:37.516Z,14.19
2022-12-31T15:24:17.850Z,14.08
2022-12-31T15:26:49.941Z,13.98
2022-12-31T15:29:28.019Z,13.90
2022-12-31T15:31:59.058Z,13.77
2022-12-31T15:34:29.815Z,13.39
2022-12-31T15:36:59.913Z,13.11
2022-12-31T15:39:41.263Z,12.99
2022-12-31T15:42:39.877Z,12.89
2022-12-31T15:45:18.898Z,12.88
2022-12-31T15:47:48.700Z,12.83
2022-12-31T15:50:17.910Z,12.77
2022-12-31T15:52:50.682Z,12.69
2022-12-31T15:55:25.446Z,12.62
2022-12-31T15:57:57.883Z,12.54
2022-12-31T16:00:36.265Z,12.47
2022-12-31T16:03:03.586Z,12.42
2022-12-31T16:05:35.249Z,12.35
2022-12-31T16:08:02.286Z,12.27
2022-12-31T16:10:30.936Z,12.17
2022-12-31T16:12:59.598Z,12.02
2022-12-31T16:15:30.627Z,11.95
2022-12-31T16:18:00.288Z,11.87
2022-12-31T16:20:32.291Z,11.81
2022-12-31T16:23:01.840Z,11.74
2022-12-31T16:25:31.897Z,11.68
2022-12-31T16:28:01.639Z,11.64
2022-12-31T16:30:32.132Z,11.61
2022-12-31T16:33:03.181Z,11.59
2022-12-31T16:35:32.436Z,11.54
2022-12-31T16:38:10.069Z,11.48
2022-12-31T16:40:37.059Z,11.40
2022-12-31T16:43:04.372Z,11.35
2022-12-31T16:45:35.450Z,11.27
2022-12-31T16:48:12.788Z,11.06
2022-12-31T16:50:45.256Z,10.88
2022-12-31T16:53:17.484Z,10.81
2022-12-31T16:55:52.063Z,10.77
2022-12-31T16:58:22.795Z,10.72
2022-12-31T17:00:51.841Z,10.69
2022-12-31T17:03:21.633Z,10.63
2022-12-31T17:06:12.406Z,10.58
2022-12-31T17:08:41.825Z,10.51
2022-12-31T17:11:23.997Z,10.43
2022-12-31T17:14:00.868Z,10.32
2022-12-31T17:16:29.342Z,10.21
2022-12-31T17:18:57.938Z,10.11
2022-12-31T17:21:29.951Z,10.02
2022-12-31T17:24:00.517Z,9.88
2022-12-31T17:26:29.949Z,9.77
2022-12-31T17:28:58.636Z,9.70
2022-12-31T17:31:33.571Z,9.65
2022-12-31T17:34:20.651Z,9.57
2022-12-31T17:36:58.337Z,9.47
2022-12-31T17:39:26.464Z,9.38
2022-12-31T17:41:57.277Z,9.29
2022-12-31T17:44:28.581Z,9.20
2022-12-31T17:46:57.632Z,9.16
2022-12-31T17:49:29.622Z,9.04
2022-12-31T17:51:56.631Z,8.97
2022-12-31T17:54:23.716Z,8.90
2022-12-31T17:56:52.021Z,8.78
2022-12-31T17:59:21.733Z,8.73
2022-12-31T18:01:49.029Z,8.70
2022-12-31T18:04:19.074Z,8.61
2022-12-31T18:06:46.171Z,8.53
2022-12-31T18:09:13.147Z,8.46
2022-12-31T18:11:40.959Z,8.39
2022-12-31T18:14:08.412Z,8.34
2022-12-31T18:16:35.677Z,8.29
2022-12-31T18:19:02.980Z,8.25
2022-12-31T18:21:36.101Z,8.21
2022-12-31T18:26:33.073Z,8.13
2022-12-31T18:29:11.385Z,8.09
2022-12-31T18:31:39.483Z,8.04
2022-12-31T18:34:06.443Z,7.98
2022-12-31T18:36:34.768Z,7.90
2022-12-31T18:39:02.096Z,7.74
2022-12-31T18:41:35.943Z,7.72
2022-12-31T18:44:03.367Z,7.73
2022-12-31T18:46:30.314Z,7.74
2022-12-31T18:48:57.328Z,7.77
2022-12-31T18:51:31.435Z,7.78
2022-12-31T18:54:01.478Z,7.77
2022-12-31T18:56:28.807Z,7.76
2022-12-31T18:58:55.920Z,7.73
2022-12-31T19:01:29.653Z,7.65
2022-12-31T19:03:58.561Z,7.59
2022-12-31T19:06:26.441Z,7.51
2022-12-31T19:08:53.916Z,7.42
2022-12-31T19:11:23.342Z,7.35
2022-12-31T19:13:50.641Z,7.28
2022-12-31T19:16:18.074Z,7.26
2022-12-31T19:18:46.375Z,7.25
2022-12-31T19:21:16.593Z,7.21
2022-12-31T19:23:44.127Z,7.20
2022-12-31T19:26:15.503Z,7.14
2022-12-31T19:28:47.676Z,7.12
2022-12-31T19:31:15.161Z,7.06
2022-12-31T19:33:42.400Z,7.01
2022-12-31T19:36:14.672Z,6.95
2022-12-31T19:38:41.686Z,6.91
2022-12-31T19:41:15.206Z,6.84
2022-12-31T19:43:42.234Z,6.81
2022-12-31T19:46:13.455Z,6.74
2022-12-31T19:48:40.640Z,6.69
2022-12-31T19:51:09.852Z,6.65
2022-12-31T19:53:36.816Z,6.65
2022-12-31T19:56:04.572Z,6.62
2022-12-31T19:58:31.736Z,6.54
2022-12-31T20:01:02.969Z,6.49
2022-12-31T20:03:32.771Z,6.44
2022-12-31T20:06:04.781Z,6.39
2022-12-31T20:08:31.769Z,6.34
2022-12-31T20:10:59.117Z,6.32
2022-12-31T20:13:26.663Z,6.27
2022-12-31T20:15:53.806Z,6.26
2022-12-31T20:18:22.957Z,6.17
2022-12-31T20:20:55.884Z,6.11
2022-12-31T20:23:23.146Z,6.05
2022-12-31T20:25:57.151Z,6.04
2022-12-31T20:28:24.215Z,5.98
2022-12-31T20:30:51.763Z,5.93
2022-12-31T20:33:20.586Z,5.89
2022-12-31T20:35:47.652Z,5.86
2022-12-31T20:38:16.036Z,5.84
2022-12-31T20:40:46.743Z,5.81
2022-12-31T20:43:14.110Z,5.82
2022-12-31T20:45:41.277Z,5.79
2022-12-31T20:48:08.509Z,5.79
2022-12-31T20:50:35.919Z,5.78
2022-12-31T20:53:03.163Z,5.77
2022-12-31T20:55:32.337Z,5.73
2022-12-31T20:58:00.596Z,5.64
2022-12-31T21:00:28.070Z,5.59
2022-12-31T21:03:04.983Z,5.56
2022-12-31T21:05:37.792Z,5.49
2022-12-31T21:08:05.006Z,5.46
2022-12-31T21:10:34.544Z,5.42
2022-12-31T21:13:01.498Z,5.38
2022-12-31T21:15:28.686Z,5.35
2022-12-31T21:17:55.849Z,5.35
2022-12-31T21:20:23.014Z,5.34
2022-12-31T21:22:50.807Z,5.34
2022-12-31T21:25:17.774Z,5.34
2022-12-31T21:27:46.192Z,5.33
2022-12-31T21:30:19.065Z,5.35
2022-12-31T21:32:47.595Z,5.35
2022-12-31T21:35:42.209Z,5.33
2022-12-31T21:38:01.733Z,5.32
2022-12-31T21:40:28.753Z,5.29
2022-12-31T21:42:57.223Z,5.28
2022-12-31T21:45:25.038Z,5.25
2022-12-31T21:48:13.382Z,5.26
2022-12-31T21:50:40.337Z,5.26
2022-12-31T21:53:07.316Z,5.19
2022-12-31T21:55:56.156Z,5.17
2022-12-31T21:58:26.304Z,5.16
2022-12-31T22:01:13.156Z,5.12
2022-12-31T22:03:40.743Z,5.09
2022-12-31T22:06:10.571Z,5.04
2022-12-31T22:08:39.728Z,4.98
2022-12-31T22:11:07.201Z,4.96
2022-12-31T22:13:36.189Z,4.93
2022-12-31T22:16:05.687Z,4.91
2022-12-31T22:18:35.012Z,4.89
2022-12-31T22:21:03.792Z,4.88
2022-12-31T22:23:31.231Z,4.88
2022-12-31T22:25:58.207Z,4.85
2022-12-31T22:28:37.940Z,4.84
2022-12-31T22:31:08.044Z,4.79
2022-12-31T22:33:35.218Z,4.75
2022-12-31T22:36:04.251Z,4.70
2022-12-31T22:38:31.669Z,4.65
2022-12-31T22:41:05.696Z,4.66
2022-12-31T22:43:33.328Z,4.67
2022-12-31T22:46:08.058Z,4.68
2022-12-31T22:48:35.190Z,4.70
2022-12-31T22:51:02.099Z,4.67
2022-12-31T22:53:29.055Z,4.65
2022-12-31T22:55:56.514Z,4.65
2022-12-31T22:58:24.369Z,4.64
2022-12-31T23:00:52.039Z,4.62
2022-12-31T23:03:20.472Z,4.57
2022-12-31T23:05:51.842Z,4.55
2022-12-31T23:08:23.336Z,4.51
2022-12-31T23:11:05.904Z,4.45
2022-12-31T23:13:56.487Z,4.41
2022-12-31T23:16:43.657Z,4.34
2022-12-31T23:19:31.082Z,4.31
2022-12-31T23:22:16.776Z,4.28
2022-12-31T23:24:43.748Z,4.25
2022-12-31T23:27:11.343Z,4.18
2022-12-31T23:29:46.063Z,4.15
2022-12-31T23:32:14.490Z,4.11
2022-12-31T23:34:43.688Z,4.10
2022-12-31T23:37:10.737Z,4.05
2022-12-31T23:39:37.707Z,4.03
2022-12-31T23:42:05.045Z,4.02
2022-12-31T23:44:31.951Z,4.00
2022-12-31T23:46:58.922Z,3.96
2022-12-31T23:49:25.981Z,3.93
2022-12-31T23:51:54.298Z,3.92
2022-12-31T23:54:21.328Z,3.92
2022-12-31T23:56:48.290Z,3.90
2022-12-31T23:59:15.362Z,3.91
